Airfield :
LOGIN :

Register | Disclaimer

   EN    FR    IT 

 










Legend :    VFR   Marginal VFR   IFR   Intensive IFR   Very Intensive IFR
Visi :
Ceiling :
>= 8 km
>= 3000ft
5 to 8 km
1000 to 3000 ft
1500m to 5 km
500 to 1000 ft
800 to 1500m
200 to 500 ft
< 800m
< 200 ft
Symbols :   Thunderstorms  Fog  Heavy snow  Heavy precipitations  Wind > 20 kt
SIGMETs :     Misc.  Thunderstorms  Icing  Turbulence  Mountain Waves  Volcanic Ashes






- Airport Elevation : 794 ft


LKCV - Čáslav Air Base

CURRENT METAR :
  • 260100Z 13007KT 9999 -TSRA FEW020CB BKN049 17/17 Q1011 NOSIG

EXPIRED METARs :
  • 260045Z 18007KT 9999 -TSRA SCT020CB BKN049 17/17 Q1011 RETSRA RMK BLU
  • 260010Z VRB02KT 3500 +TSRA FEW014 BKN030CB 18/17 Q1011 RMK YLO
  • 260000Z VRB01KT 4000 TSRA BKN031CB 18/17 Q1011 NOSIG
  • 252337Z 14003KT 8000 -TSRA SCT032CB BKN060 18/17 Q1011 RMK BLU
  • 252300Z 20002KT 9999 -RA NSC 18/17 Q1011 NOSIG

TAF TAF LKCV
Valid from the 26 at 00:00 until the 27 at 00:00 UTC


252300Z 2600/2700 VRB02KT CAVOK
TEMPO 2600/2602 8000 RA BKN025
PROB40
TEMPO 2600/2602 4000 TSRA BKN020CB
BECMG 2610/2612 29008KT
TEMPO 2613/2617 4000 TSRA BKN020CB



MET'MAP, your aeronautical weather chart ! - Copyright ORBIFLY December 2007 - Disclaimer

ORBIFLY MET'MAP TEAM :

Programming & Development : Alexandra Zaïnal
Concept & original design : Baudouin d'Aumeries
Assistance for programming : Marc-Olivier Méhu
Technical & hardware support : Manuel Goepfert

Contact : metmap@orbifly.com




SOURCES & CREDITS :

   NOAA